Time;durP1;ratioP1;P1;durP2;ratioP2;P2;SDS_P1;SDS_P2;PMS_P1;PMS_P2;Temp;Humidity;BMP_temperature;BMP_pressure;BME280_temperature;BME280_humidity;BME280_pressure;Samples;Min_cycle;Max_cycle;Signal;HPM_P1;HPM_P2
2023/04/06 00:02:16;;;;;;;14.93;9.20;;;0.60;99.90;;;-144.05;57.59;56950.78;5095142;28;20394;-81
2023/04/06 00:04:42;;;;;;;16.73;8.95;;;0.60;99.90;;;-144.05;57.70;56948.66;5077459;28;20023;-83
2023/04/06 00:07:08;;;;;;;18.42;8.68;;;0.60;99.90;;;-144.05;57.46;56967.78;5077344;28;20024;-81
2023/04/06 00:09:34;;;;;;;16.35;9.40;;;0.60;99.90;;;-144.05;57.32;56965.66;5077073;28;20028;-81
2023/04/06 00:12:00;;;;;;;18.38;9.40;;;0.60;99.90;;;-144.05;57.16;56927.41;5077088;28;20511;-82
2023/04/06 00:14:26;;;;;;;22.83;11.20;;;0.70;99.90;;;-144.05;57.56;56967.78;5076725;28;20119;-82
2023/04/06 00:16:52;;;;;;;19.00;9.13;;;0.70;99.90;;;-144.05;56.94;56929.53;5093673;28;20024;-81
2023/04/06 00:19:17;;;;;;;18.88;9.43;;;0.90;99.90;;;-144.05;56.39;56933.78;5093565;28;20024;-82
2023/04/06 00:21:43;;;;;;;19.17;9.77;;;1.00;99.90;;;-144.05;56.15;56942.28;5076535;28;20036;-83
2023/04/06 00:24:09;;;;;;;15.02;8.18;;;1.00;99.90;;;-144.05;56.48;56972.03;5076732;28;20028;-81
2023/04/06 00:26:35;;;;;;;15.27;8.82;;;0.90;99.90;;;-144.05;56.62;56967.78;5076236;28;20024;-81
2023/04/06 00:29:01;;;;;;;15.48;9.23;;;0.90;99.90;;;-144.05;56.85;56944.41;5094834;28;20399;-82
2023/04/06 00:31:27;;;;;;;19.75;9.30;;;0.80;99.90;;;-144.05;56.81;56929.53;5076624;28;20085;-81
2023/04/06 00:33:53;;;;;;;15.90;8.32;;;0.80;99.90;;;-144.05;57.12;56952.91;5076626;28;20032;-83
2023/04/06 00:36:19;;;;;;;15.18;8.48;;;0.70;99.90;;;-144.05;57.34;56957.16;5076311;28;20027;-81
2023/04/06 00:38:45;;;;;;;17.98;9.40;;;0.60;99.90;;;-144.05;57.60;56931.66;5076217;28;20020;-81
2023/04/06 00:41:11;;;;;;;19.05;8.98;;;0.50;99.90;;;-144.05;57.73;56959.28;5076320;28;20032;-81
2023/04/06 00:43:37;;;;;;;19.10;9.55;;;0.40;99.90;;;-144.05;57.93;56963.53;5093124;28;20178;-83
2023/04/06 00:46:03;;;;;;;14.27;8.27;;;0.40;99.90;;;-144.05;58.10;56959.28;5093276;28;20039;-85
2023/04/06 00:48:31;;;;;;;16.55;9.32;;;0.30;99.90;;;-144.05;58.23;56967.78;5093135;28;20077;-84
2023/04/06 00:50:57;;;;;;;16.10;8.45;;;0.20;99.90;;;-144.05;58.39;56952.91;5076136;28;20115;-84
2023/04/06 00:53:24;;;;;;;13.85;8.85;;;0.20;99.90;;;-144.05;58.55;56965.66;5076450;28;20438;-85
2023/04/06 00:55:49;;;;;;;17.63;8.52;;;0.20;99.90;;;-144.05;58.82;56972.03;5076071;28;20031;-83
2023/04/06 00:58:15;;;;;;;18.98;9.82;;;0.20;99.90;;;-144.05;59.42;56950.78;5076007;28;20020;-85
2023/04/06 01:00:42;;;;;;;24.85;10.10;;;0.20;99.90;;;-144.05;59.15;56931.66;5093426;28;20127;-84
2023/04/06 01:03:08;;;;;;;16.00;9.15;;;0.10;99.90;;;-144.05;59.05;56965.66;5083157;28;20038;-85
2023/04/06 01:05:40;;;;;;;18.20;9.23;;;0.20;99.90;;;-144.05;59.18;56942.28;5115203;28;20016;-82
2023/04/06 01:08:07;;;;;;;15.38;9.32;;;0.20;99.90;;;-144.05;59.21;56944.41;5116438;28;20042;-82
2023/04/06 01:10:33;;;;;;;22.02;10.43;;;0.30;99.90;;;-144.05;59.03;56955.03;5116057;28;20064;-82
2023/04/06 01:12:59;;;;;;;19.38;10.02;;;0.40;99.90;;;-144.05;58.89;56961.41;5087306;28;20440;-82
2023/04/06 01:15:29;;;;;;;18.58;8.90;;;0.50;99.90;;;-144.05;58.77;56959.28;5092328;28;20441;-82
2023/04/06 01:17:55;;;;;;;18.20;9.60;;;0.50;99.90;;;-144.05;58.93;56950.78;5092282;28;20023;-83
2023/04/06 01:20:21;;;;;;;20.92;9.10;;;0.50;99.90;;;-144.05;58.82;56961.41;5075550;28;20387;-82
2023/04/06 01:22:47;;;;;;;17.33;9.45;;;0.50;99.90;;;-144.05;58.66;56938.03;5075250;28;20032;-83
2023/04/06 01:25:13;;;;;;;17.55;9.15;;;0.50;99.90;;;-144.05;58.89;56946.53;5075097;28;20084;-82
2023/04/06 01:27:39;;;;;;;18.00;9.35;;;0.60;99.90;;;-144.05;58.81;56959.28;5075106;28;20036;-82
2023/04/06 01:30:06;;;;;;;17.50;9.73;;;0.70;99.90;;;-144.05;58.64;56955.03;5074805;28;20043;-82
2023/04/06 01:32:33;;;;;;;18.67;9.60;;;0.70;99.90;;;-144.05;58.19;56950.78;5074911;28;20502;-80
2023/04/06 01:34:58;;;;;;;16.65;9.63;;;0.70;99.90;;;-144.05;58.00;56942.28;5091834;28;20034;-83
2023/04/06 01:37:25;;;;;;;21.77;10.10;;;0.70;99.90;;;-144.05;58.00;56950.78;5074887;28;20036;-82
2023/04/06 01:39:51;;;;;;;16.42;9.07;;;0.80;99.90;;;-144.05;57.99;56938.03;5091944;28;20035;-84
2023/04/06 01:42:17;;;;;;;17.45;9.27;;;0.70;99.90;;;-144.05;58.01;56957.16;5075255;28;20123;-83
2023/04/06 01:44:42;;;;;;;19.50;9.35;;;0.70;99.90;;;-144.05;57.83;56950.78;5106726;28;20040;-84
2023/04/06 01:47:08;;;;;;;17.25;9.93;;;0.70;99.90;;;-144.05;57.95;56942.28;5103876;28;20039;-82
2023/04/06 01:49:34;;;;;;;16.83;9.55;;;0.70;99.90;;;-144.05;57.85;56942.28;5075144;28;20064;-82
2023/04/06 01:52:00;;;;;;;15.00;9.32;;;0.70;99.90;;;-144.05;58.00;56946.53;5093103;28;20644;-83
2023/04/06 01:54:26;;;;;;;20.67;9.38;;;0.70;99.90;;;-144.05;58.26;56944.41;5091794;28;20317;-82
2023/04/06 01:56:52;;;;;;;15.93;10.38;;;0.70;99.90;;;-144.05;57.91;56950.78;5094761;28;20089;-82
2023/04/06 01:59:18;;;;;;;16.42;8.98;;;0.70;99.90;;;-144.05;57.78;56967.78;5091623;28;20039;-83
2023/04/06 02:01:45;;;;;;;15.70;9.65;;;0.70;99.90;;;-144.05;57.93;56923.19;5074444;28;20036;-81
2023/04/06 02:04:10;;;;;;;17.00;8.90;;;0.60;99.90;;;-144.05;58.08;56963.53;5074559;28;20039;-82
2023/04/06 02:06:36;;;;;;;16.20;9.98;;;0.50;99.90;;;-144.05;58.22;56916.81;5074645;28;20038;-82
2023/04/06 02:09:02;;;;;;;16.88;9.80;;;0.60;99.90;;;-144.05;58.49;56942.28;5078813;28;20047;-81
2023/04/06 02:11:28;;;;;;;15.65;8.82;;;0.60;99.90;;;-144.05;58.17;56929.53;5074464;28;20036;-82
2023/04/06 02:13:56;;;;;;;17.63;9.75;;;0.60;99.90;;;-144.05;58.16;56940.16;5074373;28;20044;-82
2023/04/06 02:16:22;;;;;;;13.95;8.65;;;0.50;99.90;;;-144.05;58.11;56935.91;5091895;28;20111;-82
2023/04/06 02:18:50;;;;;;;19.08;9.63;;;0.50;99.90;;;-144.05;58.38;56957.16;5092662;28;20135;-82
2023/04/06 02:21:19;;;;;;;17.52;9.50;;;0.40;99.90;;;-144.05;58.22;56940.16;5094467;28;20483;-81
2023/04/06 02:23:49;;;;;;;20.95;9.77;;;0.40;99.90;;;-144.05;58.58;56938.03;5092060;28;20391;-81
2023/04/06 02:26:15;;;;;;;15.23;8.15;;;0.30;99.90;;;-144.05;58.50;56967.78;5074147;28;20115;-81
2023/04/06 02:28:41;;;;;;;17.25;9.35;;;0.20;99.90;;;-144.05;58.77;56961.41;5091034;28;20498;-81
2023/04/06 02:31:08;;;;;;;18.35;9.38;;;0.30;99.90;;;-144.05;58.58;56946.53;5073820;28;20499;-84
2023/04/06 02:33:34;;;;;;;14.55;9.05;;;0.30;99.90;;;-144.05;58.80;56938.03;5073757;28;20024;-81
2023/04/06 02:36:00;;;;;;;16.75;9.10;;;0.30;99.90;;;-144.05;58.71;56957.16;5074031;28;20035;-81
2023/04/06 02:38:26;;;;;;;21.48;9.57;;;0.40;99.90;;;-144.05;58.19;56923.19;5073887;28;20498;-81
2023/04/06 02:40:52;;;;;;;20.88;9.15;;;0.50;99.90;;;-144.05;57.72;56933.78;5073933;28;20028;-83
2023/04/06 02:43:19;;;;;;;15.48;9.32;;;0.70;99.90;;;-144.05;57.28;56929.53;5073956;28;20395;-81
2023/04/06 02:45:45;;;;;;;18.48;8.75;;;0.60;99.90;;;-144.05;57.45;56942.28;5073768;28;20491;-82
2023/04/06 02:48:11;;;;;;;24.27;9.55;;;0.60;99.90;;;-144.05;57.49;56957.16;5090716;28;20031;-81
2023/04/06 02:50:37;;;;;;;14.95;8.45;;;0.60;99.90;;;-144.05;57.56;56946.53;5092253;28;20187;-83
2023/04/06 02:53:03;;;;;;;19.95;9.07;;;0.50;99.90;;;-144.05;57.76;56923.19;5073645;28;20043;-82
2023/04/06 02:55:29;;;;;;;19.15;9.63;;;0.50;99.90;;;-144.05;57.57;56955.03;5074018;28;20491;-82
2023/04/06 02:57:55;;;;;;;24.05;9.95;;;0.50;99.90;;;-144.05;57.66;56952.91;5091990;28;20059;-80
2023/04/06 03:00:21;;;;;;;16.23;8.70;;;0.40;99.90;;;-144.05;57.61;56921.06;5092359;28;20059;-82
2023/04/06 03:02:47;;;;;;;17.65;8.75;;;0.30;99.90;;;-144.05;57.78;56933.78;5091130;28;20404;-85
2023/04/06 03:05:12;;;;;;;16.70;9.23;;;0.30;99.90;;;-144.05;57.80;56963.53;5073624;28;20051;-82
2023/04/06 03:07:38;;;;;;;16.48;8.25;;;0.30;99.90;;;-144.05;57.74;56929.53;5073804;28;20032;-82
2023/04/06 03:10:05;;;;;;;14.35;8.38;;;0.30;99.90;;;-144.05;57.61;56948.66;5073529;28;20358;-82
2023/04/06 03:12:31;;;;;;;17.77;8.70;;;0.40;99.90;;;-144.05;57.55;56948.66;5073706;28;20032;-81
2023/04/06 03:14:57;;;;;;;14.68;8.80;;;0.40;99.90;;;-144.05;57.64;56944.41;5073692;28;20032;-82
2023/04/06 03:17:23;;;;;;;15.32;8.68;;;0.20;99.90;;;-144.05;57.83;56948.66;5073864;28;20123;-82
2023/04/06 03:19:49;;;;;;;16.85;8.73;;;0.20;99.90;;;-144.05;58.06;56950.78;5073706;28;20092;-82
2023/04/06 03:22:15;;;;;;;17.05;8.95;;;0.20;99.90;;;-144.05;57.86;56955.03;5074156;28;20036;-80
2023/04/06 03:24:41;;;;;;;19.33;10.13;;;0.20;99.90;;;-144.05;58.27;56969.91;5073577;28;20028;-82
2023/04/06 03:27:07;;;;;;;22.15;9.10;;;0.20;99.90;;;-144.05;58.18;56950.78;5093194;28;20039;-83
2023/04/06 03:29:33;;;;;;;15.80;9.43;;;0.30;99.90;;;-144.05;57.78;56946.53;5077829;28;20036;-82
2023/04/06 03:31:59;;;;;;;18.60;9.88;;;0.40;99.90;;;-144.05;57.51;56927.41;5077261;28;20028;-80
2023/04/06 03:34:25;;;;;;;14.95;8.90;;;0.40;99.90;;;-144.05;57.59;56955.03;5096098;28;20420;-82
2023/04/06 03:36:50;;;;;;;15.85;9.23;;;0.40;99.90;;;-144.05;57.27;56946.53;5077365;28;20097;-82
2023/04/06 03:39:16;;;;;;;15.23;9.93;;;0.50;99.90;;;-144.05;57.35;56963.53;5077184;28;20024;-81
2023/04/06 03:41:44;;;;;;;18.25;9.93;;;0.40;99.90;;;-144.05;57.34;56938.03;5077318;28;20232;-82
2023/04/06 03:44:10;;;;;;;17.98;8.85;;;0.40;99.90;;;-144.05;57.66;56929.53;5095520;28;20028;-81
2023/04/06 03:46:36;;;;;;;17.88;8.82;;;0.40;99.90;;;-144.05;57.32;56946.53;5077490;28;20386;-81
2023/04/06 03:49:02;;;;;;;22.85;9.77;;;0.50;99.90;;;-144.05;56.78;56938.03;5077932;28;20024;-83
2023/04/06 03:51:28;;;;;;;11.60;7.65;;;0.60;99.90;;;-144.05;56.54;56961.41;5084272;28;20188;-83
2023/04/06 03:53:54;;;;;;;14.88;8.50;;;0.50;99.90;;;-144.05;56.45;56921.06;5096027;28;20020;-81
2023/04/06 03:56:20;;;;;;;15.18;8.45;;;0.60;99.90;;;-144.05;56.06;56942.28;5079334;28;20487;-81
2023/04/06 03:58:50;;;;;;;17.25;8.80;;;0.60;99.90;;;-144.05;56.15;56918.94;5077247;28;20024;-80
2023/04/06 04:01:18;;;;;;;16.30;8.60;;;0.60;99.90;;;-144.05;55.73;56955.03;5077032;28;20100;-83
2023/04/06 04:03:44;;;;;;;14.85;8.57;;;0.80;99.90;;;-144.05;55.63;56940.16;5077339;28;20494;-80
2023/04/06 04:06:10;;;;;;;15.20;8.95;;;0.60;99.90;;;-144.05;55.87;56935.91;5076805;28;20173;-81
2023/04/06 04:08:36;;;;;;;15.88;8.68;;;0.60;99.90;;;-144.05;56.05;56957.16;5093849;28;20570;-81
2023/04/06 04:11:02;;;;;;;17.15;9.43;;;0.40;99.90;;;-144.05;56.61;56927.41;5094827;28;20106;-80
2023/04/06 04:13:28;;;;;;;19.73;8.65;;;0.50;99.90;;;-144.05;55.88;56921.06;5093543;28;20211;-81
2023/04/06 04:15:54;;;;;;;18.77;9.15;;;0.60;99.90;;;-144.05;55.70;56955.03;5076433;28;20388;-83
2023/04/06 04:18:20;;;;;;;16.50;7.85;;;0.60;99.90;;;-144.05;55.75;56942.28;5076397;28;20020;-81
2023/04/06 04:20:46;;;;;;;16.77;9.40;;;0.60;99.90;;;-144.05;55.82;56942.28;5094715;28;20055;-81
2023/04/06 04:23:12;;;;;;;15.98;8.77;;;0.60;99.90;;;-144.05;55.46;56935.91;5076652;28;20027;-81
2023/04/06 04:25:38;;;;;;;23.88;9.35;;;0.60;99.90;;;-144.05;55.98;56957.16;5076780;28;20529;-81
2023/04/06 04:28:04;;;;;;;15.40;8.80;;;0.60;99.90;;;-144.05;55.48;56921.06;5076301;28;20074;-81
2023/04/06 04:30:30;;;;;;;12.70;8.20;;;0.70;99.90;;;-144.05;54.99;56952.91;5076484;28;20118;-82
2023/04/06 04:32:56;;;;;;;12.70;7.38;;;0.80;99.90;;;-144.05;54.17;56946.53;5076621;28;20020;-81
2023/04/06 04:35:22;;;;;;;14.65;8.57;;;0.90;99.90;;;-144.05;54.17;56942.28;5076921;28;20176;-82
2023/04/06 04:37:51;;;;;;;15.43;8.18;;;1.00;99.90;;;-144.05;53.88;56948.66;5075998;28;20028;-80
2023/04/06 04:40:17;;;;;;;16.70;8.75;;;1.00;99.90;;;-144.05;53.88;56944.41;5094584;28;20488;-81
2023/04/06 04:42:43;;;;;;;14.38;8.50;;;1.00;99.90;;;-144.05;53.53;56952.91;5076368;28;20127;-83
2023/04/06 04:45:09;;;;;;;16.60;8.10;;;1.00;99.90;;;-144.05;53.72;56963.53;5093007;28;20454;-81
2023/04/06 04:47:35;;;;;;;17.63;8.32;;;1.10;99.90;;;-144.05;52.76;56923.19;5092932;28;20491;-81
2023/04/06 04:50:01;;;;;;;13.32;7.15;;;1.30;99.90;;;-144.05;51.85;56942.28;5095251;28;20032;-80
2023/04/06 04:52:27;;;;;;;14.15;7.85;;;1.50;99.90;;;-144.05;52.01;56901.94;5078838;28;20028;-80
2023/04/06 04:54:53;;;;;;;13.13;7.00;;;1.50;99.90;;;-144.05;51.74;56931.66;5078019;28;20425;-82
2023/04/06 04:57:19;;;;;;;14.90;8.00;;;1.60;99.90;;;-144.05;50.98;56921.06;5077195;28;20020;-79
2023/04/06 04:59:45;;;;;;;13.75;7.38;;;1.80;99.90;;;-144.05;50.32;56918.94;5095115;28;20044;-82
2023/04/06 05:02:11;;;;;;;12.35;7.63;;;1.90;99.90;;;-144.05;49.47;56933.78;5094652;28;20024;-82
2023/04/06 05:04:37;;;;;;;15.57;7.50;;;2.20;99.90;;;-144.05;48.87;56910.44;5076685;28;20472;-80
2023/04/06 05:07:09;;;;;;;13.20;6.78;;;2.30;99.90;;;-144.05;48.31;56933.78;5076771;28;20031;-81
2023/04/06 05:09:35;;;;;;;10.70;6.20;;;2.40;99.90;;;-144.05;47.50;56925.28;5077153;28;20507;-80
2023/04/06 05:12:01;;;;;;;12.77;6.18;;;2.60;99.90;;;-144.05;46.90;56925.28;5094443;28;20083;-82
2023/04/06 05:14:28;;;;;;;13.70;7.00;;;2.70;99.90;;;-144.05;46.67;56914.69;5093624;28;20028;-82
2023/04/06 05:16:54;;;;;;;11.23;6.75;;;2.70;99.90;;;-144.05;46.84;56914.69;5076352;28;20080;-82
2023/04/06 05:19:21;;;;;;;10.68;6.90;;;2.70;99.90;;;-144.05;47.02;56918.94;5094491;28;20074;-80
2023/04/06 05:21:46;;;;;;;13.07;7.70;;;2.60;99.90;;;-144.05;46.72;56927.41;5075893;28;20115;-80
2023/04/06 05:24:12;;;;;;;10.40;6.00;;;2.60;99.90;;;-144.05;46.37;56923.19;5094436;28;20153;-79
2023/04/06 05:26:39;;;;;;;9.73;6.50;;;2.70;99.90;;;-144.05;46.04;56906.19;5092701;28;20051;-80
2023/04/06 05:29:05;;;;;;;12.65;6.72;;;2.80;99.90;;;-144.05;45.64;56933.78;5094285;28;20459;-81
2023/04/06 05:31:31;;;;;;;14.38;6.60;;;2.90;99.90;;;-144.05;45.62;56910.44;5076122;28;20123;-81
2023/04/06 05:33:57;;;;;;;10.38;6.47;;;2.80;99.90;;;-144.05;45.50;56906.19;5093421;28;20073;-81
2023/04/06 05:36:23;;;;;;;11.18;6.30;;;2.90;99.90;;;-144.05;45.71;56916.81;5093083;28;20221;-80
2023/04/06 05:38:50;;;;;;;11.20;6.43;;;2.80;99.90;;;-144.05;45.33;56899.81;5076514;28;20523;-80
2023/04/06 05:41:16;;;;;;;10.02;6.40;;;2.90;99.90;;;-144.05;44.77;56908.31;5076980;28;20028;-81
2023/04/06 05:43:42;;;;;;;13.93;6.10;;;3.10;99.90;;;-144.05;44.33;56921.06;5076551;28;20024;-81
2023/04/06 05:46:08;;;;;;;11.75;6.68;;;3.20;99.90;;;-144.05;43.99;56891.31;5093769;28;20084;-79
2023/04/06 05:48:34;;;;;;;15.23;6.80;;;3.30;99.90;;;-144.05;43.84;56904.06;5077179;28;20546;-80
2023/04/06 05:51:00;;;;;;;10.63;6.60;;;3.50;99.90;;;-144.05;43.54;56923.19;5094411;28;20036;-80
2023/04/06 05:53:28;;;;;;;21.63;7.88;;;3.60;99.90;;;-144.05;43.13;56912.56;5077187;28;20494;-81
2023/04/06 05:55:54;;;;;;;11.65;6.57;;;3.60;99.90;;;-144.05;43.30;56895.56;5076626;28;20548;-81
2023/04/06 05:58:20;;;;;;;13.30;7.47;;;3.70;99.90;;;-144.05;43.20;56914.69;5103867;28;20038;-80
2023/04/06 06:00:46;;;;;;;13.23;5.93;;;3.80;99.90;;;-144.05;42.28;56910.44;5118216;28;20056;-79
2023/04/06 06:03:13;;;;;;;13.60;6.18;;;4.00;99.90;;;-144.05;41.97;56910.44;5095088;28;20099;-83
2023/04/06 06:05:39;;;;;;;14.38;6.68;;;4.10;99.90;;;-144.05;41.73;56908.31;5093689;28;20043;-81
2023/04/06 06:08:05;;;;;;;10.65;6.35;;;4.30;99.90;;;-144.05;40.46;56887.06;5094617;28;20032;-81
2023/04/06 06:10:31;;;;;;;10.63;6.35;;;4.50;99.90;;;-144.05;40.32;56874.31;5075654;28;20051;-80
2023/04/06 06:12:56;;;;;;;12.07;6.13;;;4.70;99.90;;;-144.05;39.33;56884.94;5075002;28;20031;-82
2023/04/06 06:15:22;;;;;;;15.00;5.90;;;4.90;99.90;;;-144.05;38.58;56870.06;5074844;28;20424;-82
2023/04/06 06:17:48;;;;;;;13.60;6.10;;;5.10;99.90;;;-144.05;38.24;56889.19;5074335;28;20028;-81
2023/04/06 06:20:15;;;;;;;12.85;6.20;;;5.30;99.90;;;-144.05;38.09;56870.06;5074593;28;20031;-80
2023/04/06 06:22:40;;;;;;;9.90;6.32;;;5.50;99.90;;;-144.05;37.29;56901.94;5093044;28;20097;-80
2023/04/06 06:25:07;;;;;;;11.95;6.63;;;5.70;99.90;;;-144.05;36.63;56876.44;5091569;28;20023;-80
2023/04/06 06:27:33;;;;;;;12.38;6.72;;;5.90;99.90;;;-144.05;36.74;56865.81;5074481;28;20031;-80
2023/04/06 06:29:59;;;;;;;14.43;6.60;;;6.10;99.90;;;-144.05;36.17;56842.47;5093164;28;20034;-81
2023/04/06 06:32:25;;;;;;;12.18;6.38;;;6.30;99.90;;;-144.05;35.64;56876.44;5093480;28;20024;-81
2023/04/06 06:34:51;;;;;;;10.13;6.68;;;6.50;99.90;;;-144.05;35.48;56882.81;5074791;28;20028;-78
2023/04/06 06:37:16;;;;;;;16.35;6.82;;;6.70;99.80;;;-144.05;36.06;56857.34;5074907;28;20391;-81
2023/04/06 06:39:42;;;;;;;12.65;6.50;;;6.80;99.90;;;-144.05;35.21;56870.06;5074532;28;20024;-81
2023/04/06 06:42:08;;;;;;;10.52;5.90;;;6.90;98.50;;;-144.05;35.18;56895.56;5074765;28;20148;-83
2023/04/06 06:44:34;;;;;;;9.30;5.43;;;7.00;97.80;;;-144.05;35.32;56867.94;5092927;28;20035;-83
2023/04/06 06:47:00;;;;;;;10.10;5.70;;;7.20;97.20;;;-144.05;35.17;56882.81;5091337;28;20451;-80
2023/04/06 06:49:26;;;;;;;10.25;6.50;;;7.30;95.90;;;-144.05;34.97;56878.56;5092499;28;20024;-81
2023/04/06 06:51:52;;;;;;;11.50;6.20;;;7.30;95.30;;;-144.05;35.73;56880.69;5074059;28;20056;-81
2023/04/06 06:54:18;;;;;;;10.48;5.72;;;7.30;96.00;;;-144.05;35.71;56859.47;5091113;28;20399;-81
2023/04/06 06:56:44;;;;;;;10.20;6.57;;;7.30;96.10;;;-144.05;34.70;56872.19;5090818;28;20038;-81
2023/04/06 06:59:09;;;;;;;16.00;6.93;;;7.40;94.50;;;-144.05;34.88;56882.81;5074082;28;20039;-80
2023/04/06 07:01:36;;;;;;;15.20;6.13;;;7.50;95.00;;;-144.05;34.79;56853.09;5073581;28;20093;-80
2023/04/06 07:04:02;;;;;;;10.60;5.65;;;7.50;94.50;;;-144.05;34.64;56848.84;5074067;28;20545;-81
2023/04/06 07:06:28;;;;;;;11.43;5.75;;;7.60;93.90;;;-144.05;34.57;56876.44;5090755;28;20027;-82
2023/04/06 07:08:54;;;;;;;11.43;5.95;;;7.70;93.40;;;-144.05;34.61;56870.06;5091972;28;20074;-82
2023/04/06 07:11:21;;;;;;;11.18;6.28;;;7.80;93.10;;;-144.05;34.48;56865.81;5074086;28;20495;-82
2023/04/06 07:13:48;;;;;;;8.40;5.68;;;8.00;93.30;;;-144.05;33.96;56853.09;5092150;28;20048;-81
2023/04/06 07:16:15;;;;;;;13.98;6.03;;;8.00;91.60;;;-144.05;33.74;56893.44;5092333;28;20050;-80
2023/04/06 07:18:41;;;;;;;10.43;5.72;;;8.00;91.30;;;-144.05;34.60;56857.34;5074527;28;20437;-81
2023/04/06 07:21:07;;;;;;;11.00;6.80;;;8.10;92.20;;;-144.05;34.08;56884.94;5074514;28;20082;-83
2023/04/06 07:23:33;;;;;;;10.23;5.90;;;8.40;91.80;;;-144.05;33.69;56846.72;5074626;28;20110;-80
2023/04/06 07:25:59;;;;;;;8.15;5.40;;;8.60;91.30;;;-144.05;33.02;56870.06;5092369;28;20459;-80
2023/04/06 07:28:25;;;;;;;10.52;6.15;;;8.80;90.60;;;-144.05;32.68;56874.31;5093004;28;20085;-80
2023/04/06 07:30:50;;;;;;;8.95;5.72;;;8.80;89.00;;;-144.05;32.83;56853.09;5073942;28;20028;-81
2023/04/06 07:33:16;;;;;;;11.68;6.20;;;8.90;87.60;;;-144.05;32.80;56857.34;5090492;28;20028;-80
2023/04/06 07:35:42;;;;;;;9.88;5.78;;;9.10;88.20;;;-144.05;32.53;56870.06;5091964;28;20036;-80
2023/04/06 07:38:08;;;;;;;15.38;6.30;;;9.30;85.80;;;-144.05;32.49;56882.81;5073885;28;20028;-79
2023/04/06 07:40:34;;;;;;;9.32;5.93;;;9.20;84.20;;;-144.05;32.54;56876.44;5090628;28;20073;-79
2023/04/06 07:43:01;;;;;;;11.32;6.25;;;9.40;85.60;;;-144.05;32.54;56867.94;5073780;28;20038;-82
2023/04/06 07:45:27;;;;;;;10.75;6.40;;;9.40;84.60;;;-144.05;32.47;56863.69;5090908;28;20040;-83
2023/04/06 07:47:53;;;;;;;11.30;6.95;;;9.40;84.00;;;-144.05;32.50;56859.47;5073853;28;20036;-83
2023/04/06 07:50:19;;;;;;;15.80;7.40;;;9.60;84.80;;;-144.05;31.90;56865.81;5092331;28;20090;-81
2023/04/06 07:52:46;;;;;;;9.98;6.28;;;9.90;83.40;;;-144.05;32.07;56848.84;5092375;28;20028;-83
2023/04/06 07:55:12;;;;;;;12.95;6.88;;;10.10;82.70;;;-144.05;31.40;56865.81;5074439;28;20028;-80
2023/04/06 07:57:37;;;;;;;10.88;6.45;;;10.30;81.20;;;-144.05;31.17;56836.09;5076680;28;20024;-82
2023/04/06 08:00:05;;;;;;;10.68;6.65;;;10.60;79.60;;;-144.05;32.09;56840.34;5075686;28;20472;-81
2023/04/06 08:02:34;;;;;;;15.07;6.43;;;10.60;79.80;;;-144.05;31.20;56853.09;5082354;28;20060;-79
2023/04/06 08:05:00;;;;;;;11.05;6.57;;;10.80;79.70;;;-144.05;30.82;56855.22;5098627;28;20024;-79
2023/04/06 08:07:26;;;;;;;9.30;6.28;;;10.90;77.00;;;-144.05;31.38;56831.84;5097820;28;20043;-79
2023/04/06 08:09:52;;;;;;;10.48;6.30;;;11.40;80.20;;;-144.05;30.27;56836.09;5093937;28;20046;-82
2023/04/06 08:12:18;;;;;;;11.10;6.30;;;11.50;76.20;;;-144.05;30.14;56865.81;5105884;28;20024;-82
2023/04/06 08:14:44;;;;;;;13.80;6.45;;;11.70;75.10;;;-144.05;30.31;56840.34;5076293;28;20035;-81
2023/04/06 08:17:10;;;;;;;10.90;7.10;;;11.80;75.30;;;-144.05;30.14;56842.47;5095737;28;20446;-83
2023/04/06 08:19:37;;;;;;;15.70;7.03;;;11.80;73.30;;;-144.05;30.06;56867.94;5094445;28;20127;-83
2023/04/06 08:22:03;;;;;;;10.27;6.22;;;11.90;73.20;;;-144.05;30.02;56872.19;5077335;28;20119;-84
2023/04/06 08:24:29;;;;;;;14.00;6.88;;;11.90;73.50;;;-144.05;30.16;56846.72;5077397;28;20091;-81
2023/04/06 08:26:55;;;;;;;10.45;6.82;;;11.90;73.40;;;-144.05;30.77;56857.34;5095976;28;20455;-83
2023/04/06 08:29:21;;;;;;;16.58;7.28;;;11.90;74.60;;;-144.05;30.08;56846.72;5095638;28;20055;-83
2023/04/06 08:31:47;;;;;;;11.18;7.53;;;12.20;72.60;;;-144.05;29.17;56836.09;5096293;28;20032;-82
2023/04/06 08:34:13;;;;;;;12.45;6.53;;;12.40;69.80;;;-144.05;28.57;56848.84;5095833;28;20039;-81
2023/04/06 08:36:39;;;;;;;11.73;6.70;;;12.60;68.60;;;-144.05;29.86;56850.97;5078886;28;20498;-81
2023/04/06 08:39:05;;;;;;;12.85;7.45;;;12.80;70.60;;;-144.05;29.39;56844.59;5079579;28;20388;-81
2023/04/06 08:41:32;;;;;;;10.82;6.53;;;13.00;70.60;;;-144.05;28.73;56857.34;5079017;28;20071;-83
2023/04/06 08:44:02;;;;;;;10.73;7.03;;;13.20;67.70;;;-144.05;29.12;56838.22;5096374;28;20089;-85
2023/04/06 08:46:30;;;;;;;12.57;6.45;;;13.30;67.80;;;-144.05;28.56;56844.59;5079034;28;20032;-81
2023/04/06 08:49:06;;;;;;;13.63;6.68;;;13.30;66.10;;;-144.05;29.30;56842.47;5095390;28;20028;-81
2023/04/06 08:51:32;;;;;;;;;;;13.10;67.90;;;-144.05;28.68;56816.97;5078006;28;20032;-81
2023/04/06 08:54:00;;;;;;;11.13;7.15;;;13.10;65.70;;;-144.05;28.64;56850.97;5078524;28;20410;-81
2023/04/06 08:56:28;;;;;;;11.38;7.32;;;13.30;66.70;;;-144.05;28.63;56848.84;5078368;28;20104;-83
2023/04/06 08:58:57;;;;;;;11.82;7.80;;;13.50;66.90;;;-144.05;27.98;56840.34;5094025;28;20028;-84
2023/04/06 09:01:30;;;;;;;12.35;7.53;;;13.50;64.30;;;-144.05;28.45;56848.84;5076959;28;20487;-81
2023/04/06 09:04:04;;;;;;;10.65;7.45;;;13.90;65.40;;;-144.05;27.80;56865.81;5077216;28;20123;-84
2023/04/06 09:06:31;;;;;;;11.77;7.68;;;14.10;63.50;;;-144.05;27.56;56844.59;5077399;28;20077;-83
2023/04/06 09:08:58;;;;;;;13.32;8.70;;;14.10;62.10;;;-144.05;27.34;56831.84;5095887;28;20028;-83
2023/04/06 09:11:24;;;;;;;14.85;8.48;;;14.40;61.90;;;-144.05;26.73;56838.22;5077093;28;20028;-82
2023/04/06 09:13:57;;;;;;;11.20;8.13;;;14.50;59.10;;;-144.05;27.29;56872.19;5077078;28;20454;-82
2023/04/06 09:16:25;;;;;;;16.42;10.57;;;14.50;60.30;;;-144.05;27.18;56859.47;5094223;28;20035;-83
2023/04/06 09:18:51;;;;;;;12.90;8.98;;;14.50;60.20;;;-144.05;27.04;56863.69;5094127;28;20353;-80
2023/04/06 09:21:19;;;;;;;16.35;9.23;;;14.80;60.00;;;-144.05;26.26;56884.94;5077591;28;20028;-83
2023/04/06 09:23:48;;;;;;;18.20;9.45;;;15.10;57.90;;;-144.05;26.82;56857.34;5076741;28;20122;-81
2023/04/06 09:26:17;;;;;;;13.73;9.05;;;15.00;59.00;;;-144.05;27.61;56861.56;5094836;28;20036;-81
2023/04/06 09:28:55;;;;;;;15.18;9.13;;;14.40;58.80;;;-144.05;27.83;56870.06;5096717;28;20107;-83
2023/04/06 09:31:32;;;;;;;17.08;9.85;;;13.90;60.10;;;-144.05;27.74;56850.97;5093764;28;20055;-83
2023/04/06 09:34:00;;;;;;;11.85;7.63;;;14.00;60.10;;;-144.05;27.62;56859.47;5095986;28;20361;-83
2023/04/06 09:36:38;;;;;;;16.55;9.13;;;13.90;60.60;;;-144.05;27.15;56857.34;5076635;28;20050;-81
2023/04/06 09:39:05;;;;;;;15.75;9.18;;;14.10;60.10;;;-144.05;28.04;56850.97;5095900;28;20035;-83
2023/04/06 09:41:35;;;;;;;15.70;9.85;;;14.00;61.60;;;-144.05;27.31;56859.47;5094666;28;20031;-82
2023/04/06 09:44:11;;;;;;;15.07;9.45;;;14.10;59.70;;;-144.05;28.10;56865.81;5096147;28;20039;-81
2023/04/06 09:46:43;;;;;;;16.95;9.20;;;14.10;60.00;;;-144.05;27.08;56855.22;5078520;28;20032;-82
2023/04/06 09:49:12;;;;;;;12.75;9.10;;;14.00;58.20;;;-144.05;27.12;56870.06;5078071;28;20032;-81
2023/04/06 09:51:46;;;;;;;18.13;9.02;;;13.90;58.60;;;-144.05;27.27;56861.56;5093607;28;20028;-81
2023/04/06 09:54:20;;;;;;;17.08;9.18;;;14.10;59.80;;;-144.05;27.18;56848.84;5076887;28;20020;-81
2023/04/06 09:56:57;;;;;;;15.23;8.90;;;13.90;58.50;;;-144.05;27.97;56872.19;5093697;28;20024;-81
2023/04/06 10:00:09;;;;;;;15.90;9.88;;;13.80;60.10;;;-144.05;27.34;56850.97;5093057;28;20391;-81
2023/04/06 10:02:58;;;;;;;16.88;10.05;;;13.80;59.80;;;-144.05;27.38;56853.09;5094637;28;20028;-83
2023/04/06 10:05:37;;;;;;;16.95;9.95;;;13.70;59.00;;;-144.05;27.80;56861.56;5078699;28;20081;-78